sensor_id;sensor_type;location;lat;lon;timestamp;P1;durP1;ratioP1;P2;durP2;ratioP2
20695;SDS011;10507;52.754;13.040;2023-06-22T00:00:27;12.45;;;11.13;;
20695;SDS011;10507;52.754;13.040;2023-06-22T00:02:55;13.85;;;12.10;;
20695;SDS011;10507;52.754;13.040;2023-06-22T00:05:24;12.15;;;10.85;;
20695;SDS011;10507;52.754;13.040;2023-06-22T00:07:52;14.70;;;11.55;;
20695;SDS011;10507;52.754;13.040;2023-06-22T00:10:20;13.38;;;11.05;;
20695;SDS011;10507;52.754;13.040;2023-06-22T00:12:48;12.65;;;9.98;;
20695;SDS011;10507;52.754;13.040;2023-06-22T00:15:16;13.52;;;11.40;;
20695;SDS011;10507;52.754;13.040;2023-06-22T00:17:43;13.55;;;10.82;;
20695;SDS011;10507;52.754;13.040;2023-06-22T00:20:11;14.90;;;10.40;;
20695;SDS011;10507;52.754;13.040;2023-06-22T00:22:42;12.77;;;11.10;;
20695;SDS011;10507;52.754;13.040;2023-06-22T00:25:10;13.40;;;10.77;;
20695;SDS011;10507;52.754;13.040;2023-06-22T00:27:38;12.25;;;10.30;;
20695;SDS011;10507;52.754;13.040;2023-06-22T00:30:07;12.88;;;10.35;;
20695;SDS011;10507;52.754;13.040;2023-06-22T00:32:35;17.25;;;11.65;;
20695;SDS011;10507;52.754;13.040;2023-06-22T00:35:03;12.75;;;9.80;;
20695;SDS011;10507;52.754;13.040;2023-06-22T00:37:31;12.10;;;9.27;;
20695;SDS011;10507;52.754;13.040;2023-06-22T00:40:00;11.05;;;9.30;;
20695;SDS011;10507;52.754;13.040;2023-06-22T00:42:29;14.85;;;9.48;;
20695;SDS011;10507;52.754;13.040;2023-06-22T00:44:57;12.48;;;9.27;;
20695;SDS011;10507;52.754;13.040;2023-06-22T00:47:25;11.70;;;9.55;;
20695;SDS011;10507;52.754;13.040;2023-06-22T00:49:54;11.13;;;9.38;;
20695;SDS011;10507;52.754;13.040;2023-06-22T00:52:22;12.73;;;10.18;;
20695;SDS011;10507;52.754;13.040;2023-06-22T00:54:55;11.63;;;10.30;;
20695;SDS011;10507;52.754;13.040;2023-06-22T00:57:25;12.80;;;10.57;;
20695;SDS011;10507;52.754;13.040;2023-06-22T00:59:54;13.25;;;10.48;;
20695;SDS011;10507;52.754;13.040;2023-06-22T01:02:22;15.10;;;10.07;;
20695;SDS011;10507;52.754;13.040;2023-06-22T01:04:50;12.45;;;10.45;;
20695;SDS011;10507;52.754;13.040;2023-06-22T01:07:20;15.52;;;10.30;;
20695;SDS011;10507;52.754;13.040;2023-06-22T01:09:56;16.00;;;10.43;;
20695;SDS011;10507;52.754;13.040;2023-06-22T01:12:32;13.75;;;10.18;;
20695;SDS011;10507;52.754;13.040;2023-06-22T01:15:08;13.23;;;10.57;;
20695;SDS011;10507;52.754;13.040;2023-06-22T01:17:39;13.82;;;10.52;;
20695;SDS011;10507;52.754;13.040;2023-06-22T01:20:08;11.73;;;9.90;;
20695;SDS011;10507;52.754;13.040;2023-06-22T01:22:41;12.13;;;10.05;;
20695;SDS011;10507;52.754;13.040;2023-06-22T01:25:31;12.75;;;10.20;;
20695;SDS011;10507;52.754;13.040;2023-06-22T01:28:13;11.90;;;9.85;;
20695;SDS011;10507;52.754;13.040;2023-06-22T01:30:51;13.93;;;10.65;;
20695;SDS011;10507;52.754;13.040;2023-06-22T01:33:30;13.82;;;11.00;;
20695;SDS011;10507;52.754;13.040;2023-06-22T01:36:01;13.07;;;10.82;;
20695;SDS011;10507;52.754;13.040;2023-06-22T01:38:30;12.40;;;9.95;;
20695;SDS011;10507;52.754;13.040;2023-06-22T01:41:00;14.38;;;10.95;;
20695;SDS011;10507;52.754;13.040;2023-06-22T01:43:28;11.82;;;10.63;;
20695;SDS011;10507;52.754;13.040;2023-06-22T01:45:59;13.38;;;10.95;;
20695;SDS011;10507;52.754;13.040;2023-06-22T01:48:28;13.35;;;11.13;;
20695;SDS011;10507;52.754;13.040;2023-06-22T01:50:56;11.73;;;10.35;;
20695;SDS011;10507;52.754;13.040;2023-06-22T01:53:25;17.23;;;11.75;;
20695;SDS011;10507;52.754;13.040;2023-06-22T01:55:53;13.57;;;11.57;;
20695;SDS011;10507;52.754;13.040;2023-06-22T01:58:21;12.98;;;11.43;;
20695;SDS011;10507;52.754;13.040;2023-06-22T02:00:53;13.80;;;11.25;;
20695;SDS011;10507;52.754;13.040;2023-06-22T02:03:29;15.95;;;12.35;;
20695;SDS011;10507;52.754;13.040;2023-06-22T02:06:02;15.20;;;11.93;;
20695;SDS011;10507;52.754;13.040;2023-06-22T02:08:38;15.07;;;12.50;;
20695;SDS011;10507;52.754;13.040;2023-06-22T02:11:09;15.00;;;12.98;;
20695;SDS011;10507;52.754;13.040;2023-06-22T02:13:40;15.90;;;13.13;;
20695;SDS011;10507;52.754;13.040;2023-06-22T02:16:09;14.57;;;11.65;;
20695;SDS011;10507;52.754;13.040;2023-06-22T02:18:40;15.50;;;12.55;;
20695;SDS011;10507;52.754;13.040;2023-06-22T02:21:13;13.90;;;11.38;;
20695;SDS011;10507;52.754;13.040;2023-06-22T02:23:41;17.02;;;11.82;;
20695;SDS011;10507;52.754;13.040;2023-06-22T02:26:09;17.55;;;13.15;;
20695;SDS011;10507;52.754;13.040;2023-06-22T02:28:37;14.05;;;11.57;;
20695;SDS011;10507;52.754;13.040;2023-06-22T02:31:05;13.95;;;11.88;;
20695;SDS011;10507;52.754;13.040;2023-06-22T02:33:33;13.98;;;11.55;;
20695;SDS011;10507;52.754;13.040;2023-06-22T02:36:02;16.88;;;11.40;;
20695;SDS011;10507;52.754;13.040;2023-06-22T02:38:32;14.05;;;10.98;;
20695;SDS011;10507;52.754;13.040;2023-06-22T02:41:01;12.80;;;11.15;;
20695;SDS011;10507;52.754;13.040;2023-06-22T02:43:28;14.90;;;11.35;;
20695;SDS011;10507;52.754;13.040;2023-06-22T02:45:56;14.98;;;10.48;;
20695;SDS011;10507;52.754;13.040;2023-06-22T02:48:24;15.35;;;12.10;;
20695;SDS011;10507;52.754;13.040;2023-06-22T02:50:52;14.75;;;11.20;;
20695;SDS011;10507;52.754;13.040;2023-06-22T02:53:21;14.60;;;11.05;;
20695;SDS011;10507;52.754;13.040;2023-06-22T02:55:49;14.23;;;11.07;;
20695;SDS011;10507;52.754;13.040;2023-06-22T02:58:17;15.05;;;10.70;;
20695;SDS011;10507;52.754;13.040;2023-06-22T03:00:45;14.43;;;11.10;;
20695;SDS011;10507;52.754;13.040;2023-06-22T03:03:13;14.75;;;11.18;;
20695;SDS011;10507;52.754;13.040;2023-06-22T03:05:41;12.48;;;9.65;;
20695;SDS011;10507;52.754;13.040;2023-06-22T03:08:09;11.68;;;10.48;;
20695;SDS011;10507;52.754;13.040;2023-06-22T03:10:38;16.23;;;11.10;;
20695;SDS011;10507;52.754;13.040;2023-06-22T03:13:06;13.25;;;10.27;;
20695;SDS011;10507;52.754;13.040;2023-06-22T03:15:34;13.30;;;11.20;;
20695;SDS011;10507;52.754;13.040;2023-06-22T03:18:01;13.60;;;11.05;;
20695;SDS011;10507;52.754;13.040;2023-06-22T03:20:29;20.42;;;11.35;;
20695;SDS011;10507;52.754;13.040;2023-06-22T03:22:59;14.30;;;11.60;;
20695;SDS011;10507;52.754;13.040;2023-06-22T03:25:27;15.60;;;11.50;;
20695;SDS011;10507;52.754;13.040;2023-06-22T03:27:57;13.77;;;10.77;;
20695;SDS011;10507;52.754;13.040;2023-06-22T03:30:24;15.25;;;11.75;;
20695;SDS011;10507;52.754;13.040;2023-06-22T03:32:53;13.32;;;11.70;;
20695;SDS011;10507;52.754;13.040;2023-06-22T03:35:21;14.88;;;12.05;;
20695;SDS011;10507;52.754;13.040;2023-06-22T03:37:49;13.90;;;12.25;;
20695;SDS011;10507;52.754;13.040;2023-06-22T03:40:18;17.05;;;13.00;;
20695;SDS011;10507;52.754;13.040;2023-06-22T03:42:46;14.27;;;11.18;;
20695;SDS011;10507;52.754;13.040;2023-06-22T03:45:15;14.60;;;12.00;;
20695;SDS011;10507;52.754;13.040;2023-06-22T03:47:43;17.52;;;12.80;;
20695;SDS011;10507;52.754;13.040;2023-06-22T03:50:11;16.70;;;12.15;;
20695;SDS011;10507;52.754;13.040;2023-06-22T03:52:40;13.25;;;11.02;;
20695;SDS011;10507;52.754;13.040;2023-06-22T03:55:08;12.88;;;10.70;;
20695;SDS011;10507;52.754;13.040;2023-06-22T03:57:35;12.75;;;10.82;;
20695;SDS011;10507;52.754;13.040;2023-06-22T04:00:04;12.80;;;10.25;;
20695;SDS011;10507;52.754;13.040;2023-06-22T04:02:34;13.43;;;9.35;;
20695;SDS011;10507;52.754;13.040;2023-06-22T04:05:05;11.38;;;9.85;;
20695;SDS011;10507;52.754;13.040;2023-06-22T04:07:33;12.95;;;9.00;;
20695;SDS011;10507;52.754;13.040;2023-06-22T04:10:03;11.73;;;9.18;;
20695;SDS011;10507;52.754;13.040;2023-06-22T04:12:32;11.25;;;8.93;;
20695;SDS011;10507;52.754;13.040;2023-06-22T04:15:01;13.75;;;9.02;;
20695;SDS011;10507;52.754;13.040;2023-06-22T04:17:29;10.00;;;8.50;;
20695;SDS011;10507;52.754;13.040;2023-06-22T04:19:59;9.75;;;7.97;;
20695;SDS011;10507;52.754;13.040;2023-06-22T04:22:27;11.27;;;8.57;;
20695;SDS011;10507;52.754;13.040;2023-06-22T04:24:55;11.05;;;8.88;;
20695;SDS011;10507;52.754;13.040;2023-06-22T04:27:23;10.88;;;9.13;;
20695;SDS011;10507;52.754;13.040;2023-06-22T04:29:51;11.60;;;9.15;;
20695;SDS011;10507;52.754;13.040;2023-06-22T04:32:19;13.63;;;9.52;;
20695;SDS011;10507;52.754;13.040;2023-06-22T04:34:47;11.73;;;8.68;;
20695;SDS011;10507;52.754;13.040;2023-06-22T04:37:16;11.77;;;8.77;;
20695;SDS011;10507;52.754;13.040;2023-06-22T04:39:44;11.77;;;9.10;;
20695;SDS011;10507;52.754;13.040;2023-06-22T04:42:13;9.68;;;8.07;;
20695;SDS011;10507;52.754;13.040;2023-06-22T04:44:43;10.65;;;9.13;;
20695;SDS011;10507;52.754;13.040;2023-06-22T04:47:11;13.18;;;9.93;;
20695;SDS011;10507;52.754;13.040;2023-06-22T04:49:40;11.43;;;9.77;;
20695;SDS011;10507;52.754;13.040;2023-06-22T04:52:11;12.27;;;10.27;;
20695;SDS011;10507;52.754;13.040;2023-06-22T04:54:47;11.10;;;9.20;;
20695;SDS011;10507;52.754;13.040;2023-06-22T04:57:17;8.50;;;7.28;;
20695;SDS011;10507;52.754;13.040;2023-06-22T04:59:45;9.80;;;7.03;;
20695;SDS011;10507;52.754;13.040;2023-06-22T05:02:13;8.30;;;7.50;;
20695;SDS011;10507;52.754;13.040;2023-06-22T05:04:41;9.30;;;6.57;;
20695;SDS011;10507;52.754;13.040;2023-06-22T05:07:09;12.57;;;6.70;;
20695;SDS011;10507;52.754;13.040;2023-06-22T05:09:37;8.80;;;6.00;;
20695;SDS011;10507;52.754;13.040;2023-06-22T05:12:07;6.80;;;5.85;;
20695;SDS011;10507;52.754;13.040;2023-06-22T05:14:36;8.32;;;6.53;;
20695;SDS011;10507;52.754;13.040;2023-06-22T05:17:04;8.95;;;5.65;;
20695;SDS011;10507;52.754;13.040;2023-06-22T05:19:41;7.70;;;5.10;;
20695;SDS011;10507;52.754;13.040;2023-06-22T05:22:11;6.00;;;5.20;;
20695;SDS011;10507;52.754;13.040;2023-06-22T05:24:39;8.32;;;6.03;;
20695;SDS011;10507;52.754;13.040;2023-06-22T05:27:12;7.40;;;5.93;;
20695;SDS011;10507;52.754;13.040;2023-06-22T05:29:40;9.15;;;6.18;;
20695;SDS011;10507;52.754;13.040;2023-06-22T05:32:09;8.15;;;5.72;;
20695;SDS011;10507;52.754;13.040;2023-06-22T05:34:37;6.95;;;5.60;;
20695;SDS011;10507;52.754;13.040;2023-06-22T05:37:05;9.05;;;5.38;;
20695;SDS011;10507;52.754;13.040;2023-06-22T05:39:36;7.10;;;5.20;;
20695;SDS011;10507;52.754;13.040;2023-06-22T05:42:05;7.85;;;5.43;;
20695;SDS011;10507;52.754;13.040;2023-06-22T05:44:37;6.38;;;5.40;;
20695;SDS011;10507;52.754;13.040;2023-06-22T05:47:07;9.60;;;5.50;;
20695;SDS011;10507;52.754;13.040;2023-06-22T05:49:35;10.10;;;5.32;;
20695;SDS011;10507;52.754;13.040;2023-06-22T05:52:03;9.25;;;5.53;;
20695;SDS011;10507;52.754;13.040;2023-06-22T05:54:31;7.25;;;4.88;;
20695;SDS011;10507;52.754;13.040;2023-06-22T05:56:59;6.45;;;4.75;;
20695;SDS011;10507;52.754;13.040;2023-06-22T05:59:27;5.63;;;4.82;;
20695;SDS011;10507;52.754;13.040;2023-06-22T06:01:56;7.78;;;4.57;;
20695;SDS011;10507;52.754;13.040;2023-06-22T06:04:24;6.90;;;4.85;;
20695;SDS011;10507;52.754;13.040;2023-06-22T06:06:55;6.38;;;4.90;;
20695;SDS011;10507;52.754;13.040;2023-06-22T06:09:23;5.40;;;3.95;;
20695;SDS011;10507;52.754;13.040;2023-06-22T06:11:51;10.77;;;6.28;;
20695;SDS011;10507;52.754;13.040;2023-06-22T06:14:19;5.18;;;3.85;;
20695;SDS011;10507;52.754;13.040;2023-06-22T06:16:47;5.47;;;4.18;;
20695;SDS011;10507;52.754;13.040;2023-06-22T06:19:17;6.15;;;4.13;;
20695;SDS011;10507;52.754;13.040;2023-06-22T06:21:45;6.88;;;3.65;;
20695;SDS011;10507;52.754;13.040;2023-06-22T06:24:13;6.82;;;3.95;;
20695;SDS011;10507;52.754;13.040;2023-06-22T06:26:41;6.95;;;3.72;;
20695;SDS011;10507;52.754;13.040;2023-06-22T06:29:09;4.75;;;3.50;;
20695;SDS011;10507;52.754;13.040;2023-06-22T06:31:37;7.28;;;3.30;;
20695;SDS011;10507;52.754;13.040;2023-06-22T06:34:05;6.20;;;3.15;;
20695;SDS011;10507;52.754;13.040;2023-06-22T06:36:34;6.75;;;3.60;;
20695;SDS011;10507;52.754;13.040;2023-06-22T06:39:02;5.47;;;3.03;;
20695;SDS011;10507;52.754;13.040;2023-06-22T06:41:31;5.60;;;3.30;;
20695;SDS011;10507;52.754;13.040;2023-06-22T06:43:59;6.50;;;3.63;;
20695;SDS011;10507;52.754;13.040;2023-06-22T06:46:27;6.07;;;3.15;;
20695;SDS011;10507;52.754;13.040;2023-06-22T06:48:55;6.45;;;3.38;;
20695;SDS011;10507;52.754;13.040;2023-06-22T06:51:23;5.43;;;3.38;;
20695;SDS011;10507;52.754;13.040;2023-06-22T06:53:52;6.25;;;3.35;;
20695;SDS011;10507;52.754;13.040;2023-06-22T06:56:20;6.25;;;3.75;;
20695;SDS011;10507;52.754;13.040;2023-06-22T06:58:49;6.55;;;3.22;;
20695;SDS011;10507;52.754;13.040;2023-06-22T07:01:18;4.57;;;2.97;;
20695;SDS011;10507;52.754;13.040;2023-06-22T07:03:48;5.63;;;3.20;;
20695;SDS011;10507;52.754;13.040;2023-06-22T07:06:16;6.35;;;3.30;;
20695;SDS011;10507;52.754;13.040;2023-06-22T07:08:44;3.95;;;3.42;;
20695;SDS011;10507;52.754;13.040;2023-06-22T07:11:13;4.85;;;2.90;;
20695;SDS011;10507;52.754;13.040;2023-06-22T07:13:41;5.85;;;3.30;;
20695;SDS011;10507;52.754;13.040;2023-06-22T07:16:09;5.50;;;3.03;;
20695;SDS011;10507;52.754;13.040;2023-06-22T07:18:37;5.30;;;2.88;;
20695;SDS011;10507;52.754;13.040;2023-06-22T07:21:07;7.10;;;3.17;;
20695;SDS011;10507;52.754;13.040;2023-06-22T07:23:35;4.13;;;2.85;;
20695;SDS011;10507;52.754;13.040;2023-06-22T07:26:03;5.03;;;2.80;;
20695;SDS011;10507;52.754;13.040;2023-06-22T07:28:34;4.72;;;3.08;;
20695;SDS011;10507;52.754;13.040;2023-06-22T07:31:04;4.25;;;2.88;;
20695;SDS011;10507;52.754;13.040;2023-06-22T07:33:32;3.85;;;2.63;;
20695;SDS011;10507;52.754;13.040;2023-06-22T07:36:00;5.35;;;2.72;;
20695;SDS011;10507;52.754;13.040;2023-06-22T07:38:28;3.63;;;2.45;;
20695;SDS011;10507;52.754;13.040;2023-06-22T07:40:56;3.55;;;2.50;;
20695;SDS011;10507;52.754;13.040;2023-06-22T07:43:24;2.92;;;2.08;;
20695;SDS011;10507;52.754;13.040;2023-06-22T07:45:54;2.95;;;1.90;;
20695;SDS011;10507;52.754;13.040;2023-06-22T07:48:22;3.42;;;2.40;;
20695;SDS011;10507;52.754;13.040;2023-06-22T07:50:50;3.65;;;2.10;;
20695;SDS011;10507;52.754;13.040;2023-06-22T07:53:19;3.63;;;2.00;;
20695;SDS011;10507;52.754;13.040;2023-06-22T07:55:48;3.33;;;1.90;;
20695;SDS011;10507;52.754;13.040;2023-06-22T07:58:16;4.18;;;2.28;;
20695;SDS011;10507;52.754;13.040;2023-06-22T08:00:45;3.63;;;2.10;;
20695;SDS011;10507;52.754;13.040;2023-06-22T08:03:16;3.15;;;2.10;;
20695;SDS011;10507;52.754;13.040;2023-06-22T08:05:44;2.47;;;1.90;;
20695;SDS011;10507;52.754;13.040;2023-06-22T08:08:12;3.00;;;2.05;;
20695;SDS011;10507;52.754;13.040;2023-06-22T08:10:40;4.40;;;2.08;;
20695;SDS011;10507;52.754;13.040;2023-06-22T08:13:09;5.38;;;2.55;;
20695;SDS011;10507;52.754;13.040;2023-06-22T08:15:37;5.30;;;2.17;;
20695;SDS011;10507;52.754;13.040;2023-06-22T08:18:05;4.20;;;2.10;;
20695;SDS011;10507;52.754;13.040;2023-06-22T08:20:35;4.40;;;2.15;;
20695;SDS011;10507;52.754;13.040;2023-06-22T08:23:03;2.85;;;2.20;;
20695;SDS011;10507;52.754;13.040;2023-06-22T08:25:32;2.72;;;1.98;;
20695;SDS011;10507;52.754;13.040;2023-06-22T08:28:00;2.28;;;1.60;;
20695;SDS011;10507;52.754;13.040;2023-06-22T08:30:28;3.33;;;1.90;;
20695;SDS011;10507;52.754;13.040;2023-06-22T08:32:56;3.80;;;1.90;;
20695;SDS011;10507;52.754;13.040;2023-06-22T08:35:24;3.97;;;2.10;;
20695;SDS011;10507;52.754;13.040;2023-06-22T08:37:53;2.40;;;1.60;;
20695;SDS011;10507;52.754;13.040;2023-06-22T08:40:23;3.17;;;1.65;;
20695;SDS011;10507;52.754;13.040;2023-06-22T08:42:52;4.80;;;2.00;;
20695;SDS011;10507;52.754;13.040;2023-06-22T08:45:20;2.88;;;1.60;;
20695;SDS011;10507;52.754;13.040;2023-06-22T08:47:48;2.60;;;1.60;;
20695;SDS011;10507;52.754;13.040;2023-06-22T08:50:17;5.13;;;2.38;;
20695;SDS011;10507;52.754;13.040;2023-06-22T08:52:45;3.17;;;2.00;;
20695;SDS011;10507;52.754;13.040;2023-06-22T08:55:15;4.03;;;2.08;;
20695;SDS011;10507;52.754;13.040;2023-06-22T08:57:43;2.85;;;1.90;;
20695;SDS011;10507;52.754;13.040;2023-06-22T09:00:12;3.15;;;2.05;;
20695;SDS011;10507;52.754;13.040;2023-06-22T09:02:44;3.38;;;2.45;;
20695;SDS011;10507;52.754;13.040;2023-06-22T09:05:12;3.75;;;2.22;;
20695;SDS011;10507;52.754;13.040;2023-06-22T09:07:41;4.07;;;2.10;;
20695;SDS011;10507;52.754;13.040;2023-06-22T09:10:09;3.58;;;2.10;;
20695;SDS011;10507;52.754;13.040;2023-06-22T09:12:39;4.28;;;2.05;;
20695;SDS011;10507;52.754;13.040;2023-06-22T09:15:07;3.03;;;2.08;;
20695;SDS011;10507;52.754;13.040;2023-06-22T09:17:41;3.80;;;1.90;;
20695;SDS011;10507;52.754;13.040;2023-06-22T09:20:10;3.17;;;2.35;;
20695;SDS011;10507;52.754;13.040;2023-06-22T09:22:38;3.78;;;2.20;;
20695;SDS011;10507;52.754;13.040;2023-06-22T09:25:06;5.50;;;2.38;;
20695;SDS011;10507;52.754;13.040;2023-06-22T09:27:35;4.07;;;2.50;;
20695;SDS011;10507;52.754;13.040;2023-06-22T09:30:05;4.63;;;2.00;;
20695;SDS011;10507;52.754;13.040;2023-06-22T09:32:34;2.63;;;1.77;;
20695;SDS011;10507;52.754;13.040;2023-06-22T09:35:03;3.97;;;2.10;;
20695;SDS011;10507;52.754;13.040;2023-06-22T09:37:33;4.63;;;2.03;;
20695;SDS011;10507;52.754;13.040;2023-06-22T09:40:01;3.88;;;1.90;;
20695;SDS011;10507;52.754;13.040;2023-06-22T09:42:33;3.10;;;1.98;;
20695;SDS011;10507;52.754;13.040;2023-06-22T09:45:02;2.50;;;1.90;;
20695;SDS011;10507;52.754;13.040;2023-06-22T09:47:31;3.28;;;1.95;;
20695;SDS011;10507;52.754;13.040;2023-06-22T09:49:59;3.42;;;1.83;;
20695;SDS011;10507;52.754;13.040;2023-06-22T09:52:28;4.90;;;1.90;;
20695;SDS011;10507;52.754;13.040;2023-06-22T09:55:12;4.85;;;2.55;;
20695;SDS011;10507;52.754;13.040;2023-06-22T09:57:41;5.45;;;2.10;;
20695;SDS011;10507;52.754;13.040;2023-06-22T10:00:10;4.40;;;1.92;;
20695;SDS011;10507;52.754;13.040;2023-06-22T10:02:41;5.68;;;1.85;;
20695;SDS011;10507;52.754;13.040;2023-06-22T10:05:10;3.70;;;2.50;;
20695;SDS011;10507;52.754;13.040;2023-06-22T10:07:38;3.83;;;2.50;;
20695;SDS011;10507;52.754;13.040;2023-06-22T10:10:09;4.35;;;2.35;;
20695;SDS011;10507;52.754;13.040;2023-06-22T10:12:40;3.85;;;1.70;;
20695;SDS011;10507;52.754;13.040;2023-06-22T10:15:09;4.22;;;1.92;;
20695;SDS011;10507;52.754;13.040;2023-06-22T10:17:38;3.33;;;2.15;;
20695;SDS011;10507;52.754;13.040;2023-06-22T10:20:08;4.25;;;2.40;;
20695;SDS011;10507;52.754;13.040;2023-06-22T10:22:38;2.67;;;1.60;;
20695;SDS011;10507;52.754;13.040;2023-06-22T10:25:07;2.88;;;2.05;;
20695;SDS011;10507;52.754;13.040;2023-06-22T10:27:35;4.25;;;1.98;;
20695;SDS011;10507;52.754;13.040;2023-06-22T10:30:06;3.10;;;2.20;;
20695;SDS011;10507;52.754;13.040;2023-06-22T10:32:35;3.22;;;1.88;;
20695;SDS011;10507;52.754;13.040;2023-06-22T10:35:04;2.92;;;1.95;;
20695;SDS011;10507;52.754;13.040;2023-06-22T10:37:34;3.58;;;2.17;;
20695;SDS011;10507;52.754;13.040;2023-06-22T10:40:02;2.72;;;1.70;;
20695;SDS011;10507;52.754;13.040;2023-06-22T10:42:31;3.35;;;2.00;;
20695;SDS011;10507;52.754;13.040;2023-06-22T10:44:59;4.97;;;2.20;;
20695;SDS011;10507;52.754;13.040;2023-06-22T10:47:27;5.03;;;2.30;;
20695;SDS011;10507;52.754;13.040;2023-06-22T10:49:55;3.53;;;2.38;;
20695;SDS011;10507;52.754;13.040;2023-06-22T10:52:23;3.38;;;2.10;;
20695;SDS011;10507;52.754;13.040;2023-06-22T10:54:53;4.32;;;2.15;;
20695;SDS011;10507;52.754;13.040;2023-06-22T10:57:21;5.10;;;2.00;;
20695;SDS011;10507;52.754;13.040;2023-06-22T10:59:49;3.58;;;2.25;;
20695;SDS011;10507;52.754;13.040;2023-06-22T11:02:17;2.95;;;2.10;;
20695;SDS011;10507;52.754;13.040;2023-06-22T11:04:45;2.75;;;1.92;;
20695;SDS011;10507;52.754;13.040;2023-06-22T11:07:14;3.08;;;1.98;;
20695;SDS011;10507;52.754;13.040;2023-06-22T11:09:43;5.20;;;2.42;;
20695;SDS011;10507;52.754;13.040;2023-06-22T11:12:15;4.43;;;2.60;;
20695;SDS011;10507;52.754;13.040;2023-06-22T11:14:43;3.78;;;2.50;;
20695;SDS011;10507;52.754;13.040;2023-06-22T11:17:11;3.33;;;2.38;;
20695;SDS011;10507;52.754;13.040;2023-06-22T11:19:39;4.57;;;2.33;;
20695;SDS011;10507;52.754;13.040;2023-06-22T11:22:06;3.20;;;2.20;;
20695;SDS011;10507;52.754;13.040;2023-06-22T11:24:34;3.05;;;2.40;;
20695;SDS011;10507;52.754;13.040;2023-06-22T11:27:02;5.18;;;2.17;;
20695;SDS011;10507;52.754;13.040;2023-06-22T11:29:36;3.72;;;2.13;;
20695;SDS011;10507;52.754;13.040;2023-06-22T11:32:06;2.75;;;2.17;;
20695;SDS011;10507;52.754;13.040;2023-06-22T11:34:37;3.92;;;2.75;;
20695;SDS011;10507;52.754;13.040;2023-06-22T11:37:06;4.13;;;2.33;;
20695;SDS011;10507;52.754;13.040;2023-06-22T11:39:34;4.68;;;2.75;;
20695;SDS011;10507;52.754;13.040;2023-06-22T11:42:08;4.78;;;2.72;;
20695;SDS011;10507;52.754;13.040;2023-06-22T11:44:38;3.58;;;2.38;;
20695;SDS011;10507;52.754;13.040;2023-06-22T11:47:06;5.57;;;2.58;;
20695;SDS011;10507;52.754;13.040;2023-06-22T11:49:34;4.75;;;2.83;;
20695;SDS011;10507;52.754;13.040;2023-06-22T11:52:02;4.68;;;2.60;;
20695;SDS011;10507;52.754;13.040;2023-06-22T11:54:30;4.68;;;2.55;;
20695;SDS011;10507;52.754;13.040;2023-06-22T11:56:59;3.92;;;2.58;;
20695;SDS011;10507;52.754;13.040;2023-06-22T11:59:27;4.60;;;2.95;;
20695;SDS011;10507;52.754;13.040;2023-06-22T12:01:56;4.03;;;2.88;;
20695;SDS011;10507;52.754;13.040;2023-06-22T12:04:25;5.35;;;2.97;;
20695;SDS011;10507;52.754;13.040;2023-06-22T12:06:53;3.53;;;2.60;;
20695;SDS011;10507;52.754;13.040;2023-06-22T12:09:21;3.80;;;2.60;;
20695;SDS011;10507;52.754;13.040;2023-06-22T12:11:49;3.83;;;2.55;;
20695;SDS011;10507;52.754;13.040;2023-06-22T12:14:17;3.47;;;2.47;;
20695;SDS011;10507;52.754;13.040;2023-06-22T12:16:45;5.90;;;3.15;;
20695;SDS011;10507;52.754;13.040;2023-06-22T12:19:14;4.25;;;3.38;;
20695;SDS011;10507;52.754;13.040;2023-06-22T12:21:42;4.88;;;3.13;;
20695;SDS011;10507;52.754;13.040;2023-06-22T12:24:12;4.15;;;2.83;;
20695;SDS011;10507;52.754;13.040;2023-06-22T12:26:40;5.30;;;3.72;;
20695;SDS011;10507;52.754;13.040;2023-06-22T12:29:09;5.55;;;3.25;;
20695;SDS011;10507;52.754;13.040;2023-06-22T12:31:37;3.20;;;2.90;;
20695;SDS011;10507;52.754;13.040;2023-06-22T12:34:05;5.10;;;3.33;;
20695;SDS011;10507;52.754;13.040;2023-06-22T12:36:35;4.95;;;2.80;;
20695;SDS011;10507;52.754;13.040;2023-06-22T12:39:03;4.38;;;2.60;;
20695;SDS011;10507;52.754;13.040;2023-06-22T12:41:31;3.80;;;2.83;;
20695;SDS011;10507;52.754;13.040;2023-06-22T12:43:59;4.97;;;3.00;;
20695;SDS011;10507;52.754;13.040;2023-06-22T12:46:27;4.75;;;3.63;;
20695;SDS011;10507;52.754;13.040;2023-06-22T12:48:57;4.78;;;3.00;;
20695;SDS011;10507;52.754;13.040;2023-06-22T12:51:27;4.28;;;3.25;;
20695;SDS011;10507;52.754;13.040;2023-06-22T12:53:56;4.10;;;2.92;;
20695;SDS011;10507;52.754;13.040;2023-06-22T12:56:24;5.53;;;3.30;;
20695;SDS011;10507;52.754;13.040;2023-06-22T12:58:52;3.58;;;2.80;;
20695;SDS011;10507;52.754;13.040;2023-06-22T13:03:55;4.28;;;2.75;;
20695;SDS011;10507;52.754;13.040;2023-06-22T13:06:24;3.50;;;2.83;;
20695;SDS011;10507;52.754;13.040;2023-06-22T13:08:52;3.83;;;2.83;;
20695;SDS011;10507;52.754;13.040;2023-06-22T13:11:24;3.65;;;2.92;;
20695;SDS011;10507;52.754;13.040;2023-06-22T13:13:52;5.85;;;3.53;;
20695;SDS011;10507;52.754;13.040;2023-06-22T13:16:21;5.00;;;3.42;;
20695;SDS011;10507;52.754;13.040;2023-06-22T13:18:49;4.47;;;3.30;;
20695;SDS011;10507;52.754;13.040;2023-06-22T13:21:17;5.03;;;2.88;;
20695;SDS011;10507;52.754;13.040;2023-06-22T13:23:45;4.53;;;3.40;;
20695;SDS011;10507;52.754;13.040;2023-06-22T13:26:13;4.18;;;2.67;;
20695;SDS011;10507;52.754;13.040;2023-06-22T13:28:42;3.53;;;2.92;;
20695;SDS011;10507;52.754;13.040;2023-06-22T13:31:10;5.18;;;3.00;;
20695;SDS011;10507;52.754;13.040;2023-06-22T13:33:38;4.95;;;3.38;;
20695;SDS011;10507;52.754;13.040;2023-06-22T13:36:07;4.63;;;3.40;;
20695;SDS011;10507;52.754;13.040;2023-06-22T13:38:35;5.63;;;3.78;;
20695;SDS011;10507;52.754;13.040;2023-06-22T13:41:04;3.97;;;3.15;;
20695;SDS011;10507;52.754;13.040;2023-06-22T13:43:33;5.40;;;3.25;;
20695;SDS011;10507;52.754;13.040;2023-06-22T13:46:03;7.25;;;3.92;;
20695;SDS011;10507;52.754;13.040;2023-06-22T13:48:35;3.78;;;3.08;;
20695;SDS011;10507;52.754;13.040;2023-06-22T13:51:03;4.78;;;3.47;;
20695;SDS011;10507;52.754;13.040;2023-06-22T13:53:32;4.75;;;3.40;;
20695;SDS011;10507;52.754;13.040;2023-06-22T13:56:00;3.72;;;3.22;;
20695;SDS011;10507;52.754;13.040;2023-06-22T13:58:28;4.75;;;3.80;;
20695;SDS011;10507;52.754;13.040;2023-06-22T14:00:56;4.00;;;2.90;;
20695;SDS011;10507;52.754;13.040;2023-06-22T14:03:25;4.40;;;3.13;;
20695;SDS011;10507;52.754;13.040;2023-06-22T14:05:53;5.93;;;2.95;;
20695;SDS011;10507;52.754;13.040;2023-06-22T14:08:22;4.53;;;3.30;;
20695;SDS011;10507;52.754;13.040;2023-06-22T14:11:07;8.77;;;3.50;;
20695;SDS011;10507;52.754;13.040;2023-06-22T14:13:35;4.43;;;3.28;;
20695;SDS011;10507;52.754;13.040;2023-06-22T14:16:03;5.47;;;3.30;;
20695;SDS011;10507;52.754;13.040;2023-06-22T14:18:33;3.70;;;3.15;;
20695;SDS011;10507;52.754;13.040;2023-06-22T14:21:01;3.38;;;2.90;;
20695;SDS011;10507;52.754;13.040;2023-06-22T14:23:29;5.57;;;3.55;;
20695;SDS011;10507;52.754;13.040;2023-06-22T14:25:57;6.32;;;3.30;;
20695;SDS011;10507;52.754;13.040;2023-06-22T14:28:25;4.75;;;3.15;;
20695;SDS011;10507;52.754;13.040;2023-06-22T14:30:53;4.45;;;3.20;;
20695;SDS011;10507;52.754;13.040;2023-06-22T14:33:22;4.10;;;3.33;;
20695;SDS011;10507;52.754;13.040;2023-06-22T14:35:52;5.30;;;2.97;;
20695;SDS011;10507;52.754;13.040;2023-06-22T14:38:20;5.57;;;3.40;;